Time;durP1;ratioP1;P1;durP2;ratioP2;P2;SDS_P1;SDS_P2;PMS_P1;PMS_P2;Temp;Humidity;BMP_temperature;BMP_pressure;BME280_temperature;BME280_humidity;BME280_pressure;Samples;Min_cycle;Max_cycle;Signal;HPM_P1;HPM_P2
2022/06/28 00:00:08;;;;;;;17.15;12.55;;;;;;;12.91;100.00;101997.34;5043259;28;20483;-71
2022/06/28 00:02:34;;;;;;;14.15;11.27;;;;;;;12.96;100.00;101997.56;5045660;28;20033;-71
2022/06/28 00:04:59;;;;;;;13.18;10.35;;;;;;;12.95;100.00;101984.84;5044641;28;20036;-71
2022/06/28 00:07:24;;;;;;;13.73;10.18;;;;;;;12.96;100.00;101989.28;5045980;28;20500;-72
2022/06/28 00:09:50;;;;;;;15.20;11.13;;;;;;;12.98;100.00;101991.84;5043753;28;20040;-71
2022/06/28 00:12:15;;;;;;;12.32;9.98;;;;;;;12.96;100.00;102003.06;5042721;28;20124;-72
2022/06/28 00:17:25;;;;;;;13.90;10.23;;;;;;;12.96;100.00;101996.72;5044312;28;20562;-72
2022/06/28 00:19:51;;;;;;;13.63;10.38;;;;;;;12.97;100.00;101999.25;5049796;28;20029;-72
2022/06/28 00:22:16;;;;;;;12.38;9.27;;;;;;;12.98;100.00;101997.34;5047838;28;20457;-72
2022/06/28 00:24:42;;;;;;;12.10;9.10;;;;;;;12.93;99.60;101995.25;5050065;28;20087;-71
2022/06/28 00:27:07;;;;;;;12.25;9.13;;;;;;;12.91;99.86;101991.00;5047004;28;20023;-72
2022/06/28 00:29:33;;;;;;;14.95;10.02;;;;;;;12.93;99.91;101994.41;5048473;28;20037;-72
2022/06/28 00:31:58;;;;;;;12.18;9.50;;;;;;;12.93;100.00;101992.50;5047320;28;20021;-71
2022/06/28 00:34:23;;;;;;;12.15;9.70;;;;;;;12.92;100.00;101993.53;5048373;28;20477;-72
2022/06/28 00:36:48;;;;;;;13.77;9.32;;;;;;;12.93;99.60;101997.16;5049106;28;20428;-72
2022/06/28 00:39:14;;;;;;;13.23;9.25;;;;;;;12.86;99.98;101999.94;5047407;28;20444;-72
2022/06/28 00:41:41;;;;;;;15.35;9.52;;;;;;;12.80;99.70;101997.19;5047656;28;20170;-72
2022/06/28 00:44:09;;;;;;;11.82;9.00;;;;;;;12.77;99.80;102006.75;5047249;28;20040;-72
2022/06/28 00:46:34;;;;;;;12.93;9.35;;;;;;;12.73;100.00;101997.22;5048493;28;20111;-72
2022/06/28 00:49:01;;;;;;;14.77;10.13;;;;;;;12.71;100.00;102005.69;5047402;28;20481;-72
2022/06/28 00:51:26;;;;;;;14.80;10.18;;;;;;;12.71;100.00;102004.84;5048255;28;20036;-71
2022/06/28 00:53:53;;;;;;;14.63;10.35;;;;;;;12.67;100.00;102004.47;5048891;28;20033;-71
2022/06/28 00:56:19;;;;;;;11.32;9.73;;;;;;;12.67;100.00;102003.59;5046292;28;20122;-72
2022/06/28 00:58:45;;;;;;;13.45;10.55;;;;;;;12.63;100.00;102002.34;5048600;28;20482;-72
2022/06/28 01:01:10;;;;;;;12.18;10.10;;;;;;;12.60;100.00;102000.84;5047816;28;20029;-72
2022/06/28 01:03:36;;;;;;;14.18;10.25;;;;;;;12.60;100.00;102008.28;5060719;23;20504;-71
2022/06/28 01:06:01;;;;;;;13.32;9.70;;;;;;;12.57;100.00;102015.09;5047968;28;20037;-72
2022/06/28 01:08:27;;;;;;;14.07;10.10;;;;;;;12.51;100.00;102007.66;5045935;28;20590;-73
2022/06/28 01:10:52;;;;;;;12.35;10.93;;;;;;;12.52;100.00;102008.50;5045828;28;20044;-72
2022/06/28 01:13:18;;;;;;;12.60;10.63;;;;;;;12.50;100.00;102014.25;5046578;28;20033;-72
2022/06/28 01:15:43;;;;;;;11.88;10.60;;;;;;;12.48;100.00;102010.03;5046565;28;20037;-73
2022/06/28 01:18:10;;;;;;;14.48;10.73;;;;;;;12.44;100.00;102013.19;5047974;28;20477;-72
2022/06/28 01:20:36;;;;;;;13.75;10.65;;;;;;;12.39;100.00;102018.50;5041725;28;20031;-72
2022/06/28 01:23:02;;;;;;;13.55;11.20;;;;;;;12.40;100.00;102016.59;5048201;28;20690;-72
2022/06/28 01:25:28;;;;;;;13.30;11.27;;;;;;;12.39;100.00;102020.41;5046221;28;20029;-72
2022/06/28 01:27:54;;;;;;;14.48;11.00;;;;;;;12.42;100.00;102022.75;5047996;28;20079;-72
2022/06/28 01:30:21;;;;;;;13.60;11.23;;;;;;;12.40;100.00;102013.84;5044304;28;20049;-72
2022/06/28 01:32:46;;;;;;;14.35;11.23;;;;;;;12.37;100.00;102015.13;5047472;28;20104;-72
2022/06/28 01:35:12;;;;;;;13.68;10.82;;;;;;;12.33;100.00;102016.59;5047213;28;20124;-68
2022/06/28 01:37:38;;;;;;;13.93;11.43;;;;;;;12.30;100.00;102017.03;5048622;28;20130;-72
2022/06/28 01:40:04;;;;;;;15.10;11.02;;;;;;;12.25;100.00;102021.47;5044286;28;20049;-72
2022/06/28 01:42:30;;;;;;;14.18;11.45;;;;;;;12.23;100.00;102021.69;5048510;28;20099;-72
2022/06/28 01:44:57;;;;;;;15.20;11.10;;;;;;;12.18;100.00;102025.09;5047460;28;20049;-72
2022/06/28 01:47:24;;;;;;;16.77;10.88;;;;;;;12.17;100.00;102028.06;5041362;28;20021;-72
2022/06/28 01:49:50;;;;;;;15.95;11.70;;;;;;;12.16;100.00;102029.09;5037592;28;20033;-72
2022/06/28 01:52:16;;;;;;;17.27;11.63;;;;;;;12.14;100.00;102031.22;5046372;28;20114;-72
2022/06/28 01:54:42;;;;;;;14.25;11.75;;;;;;;12.14;100.00;102032.06;5046751;28;20086;-72
2022/06/28 01:57:07;;;;;;;14.45;11.40;;;;;;;12.14;100.00;102023.81;5048460;28;20037;-71
2022/06/28 01:59:33;;;;;;;15.02;11.40;;;;;;;12.15;100.00;102027.41;5045717;28;20034;-71
2022/06/28 02:01:58;;;;;;;14.43;11.70;;;;;;;12.12;100.00;102036.13;5046984;28;20025;-72
2022/06/28 02:04:29;;;;;;;15.18;12.00;;;;;;;12.11;100.00;102031.66;5047800;28;20033;-72
2022/06/28 02:06:55;;;;;;;13.30;11.20;;;;;;;12.05;100.00;102033.34;5046095;28;20493;-72
2022/06/28 02:09:20;;;;;;;14.38;12.10;;;;;;;12.04;100.00;102031.66;5045238;28;20041;-72
2022/06/28 02:11:46;;;;;;;14.52;12.00;;;;;;;12.02;100.00;102027.44;5047062;28;20027;-72
2022/06/28 02:14:11;;;;;;;14.90;12.07;;;;;;;11.98;100.00;102035.25;5047837;28;20029;-72
2022/06/28 02:16:37;;;;;;;15.60;11.55;;;;;;;11.96;100.00;102040.09;5045609;28;20393;-72
2022/06/28 02:19:02;;;;;;;13.73;11.52;;;;;;;11.90;100.00;102030.78;5045311;28;20045;-72
2022/06/28 02:21:29;;;;;;;15.93;12.90;;;;;;;11.87;100.00;102039.50;5047555;28;20028;-73
2022/06/28 02:23:56;;;;;;;15.25;12.35;;;;;;;11.81;100.00;102036.69;5047117;28;20086;-72
2022/06/28 02:26:21;;;;;;;16.13;12.05;;;;;;;11.80;100.00;102037.75;5046937;28;20114;-72
2022/06/28 02:28:46;;;;;;;13.88;12.38;;;;;;;11.75;100.00;102048.53;5046910;28;20029;-73
2022/06/28 02:31:14;;;;;;;15.63;11.90;;;;;;;11.64;100.00;102048.09;5044328;28;20016;-68
2022/06/28 02:33:41;;;;;;;13.55;11.98;;;;;;;11.61;100.00;102055.94;5044866;28;20115;-72
2022/06/28 02:41:35;;;;;;;15.93;11.85;;;;;;;11.53;100.00;102061.63;5046080;28;20044;-72
2022/06/28 02:44:00;;;;;;;18.00;12.13;;;;;;;11.54;100.00;102060.56;5043263;28;20037;-72
2022/06/28 02:46:26;;;;;;;14.75;12.13;;;;;;;11.50;100.00;102062.00;5046468;28;20516;-72
2022/06/28 02:48:51;;;;;;;16.98;13.15;;;;;;;11.47;100.00;102065.19;5045762;28;20400;-68
2022/06/28 02:51:16;;;;;;;15.70;12.23;;;;;;;11.43;100.00;102079.34;5046219;28;20041;-72
2022/06/28 02:53:42;;;;;;;14.00;11.82;;;;;;;11.39;100.00;102072.56;5047262;28;20025;-72
2022/06/28 02:56:07;;;;;;;14.98;12.40;;;;;;;11.39;100.00;102080.81;5044083;28;20128;-72
2022/06/28 02:58:32;;;;;;;17.27;13.07;;;;;;;11.36;100.00;102092.25;5045538;28;20178;-72
2022/06/28 03:00:58;;;;;;;18.85;14.02;;;;;;;11.39;100.00;102093.72;5045108;28;20501;-71
2022/06/28 03:03:23;;;;;;;18.70;13.23;;;;;;;11.39;100.00;102094.56;5045737;28;20040;-71
2022/06/28 03:05:49;;;;;;;16.33;13.73;;;;;;;11.41;100.00;102097.97;5046983;28;20664;-71
2022/06/28 03:08:14;;;;;;;19.17;13.27;;;;;;;11.41;100.00;102091.63;5045124;28;20025;-72
2022/06/28 03:10:39;;;;;;;17.60;13.20;;;;;;;11.38;100.00;102098.38;5044553;28;20036;-72
2022/06/28 03:13:05;;;;;;;20.90;13.80;;;;;;;11.36;100.00;102099.66;5046072;28;20052;-72
2022/06/28 03:15:30;;;;;;;17.77;12.80;;;;;;;11.32;100.00;102099.22;5045875;28;20098;-72
2022/06/28 03:17:56;;;;;;;17.25;12.80;;;;;;;11.30;100.00;102098.53;5045914;28;20091;-72
2022/06/28 03:20:21;;;;;;;16.02;12.40;;;;;;;11.33;100.00;102103.66;5045755;28;20025;-72
2022/06/28 03:22:47;;;;;;;16.83;11.80;;;;;;;11.31;100.00;102104.94;5046737;28;20032;-71
2022/06/28 03:25:12;;;;;;;17.15;13.07;;;;;;;11.32;100.00;102109.38;5043370;28;20029;-68
2022/06/28 03:27:38;;;;;;;15.02;11.95;;;;;;;11.34;100.00;102107.25;5046727;28;20078;-73
2022/06/28 03:30:04;;;;;;;15.05;12.50;;;;;;;11.32;100.00;102112.13;5044964;28;20167;-72
2022/06/28 03:32:30;;;;;;;17.52;12.57;;;;;;;11.30;100.00;102112.28;5046339;28;20115;-71
2022/06/28 03:34:55;;;;;;;16.23;12.07;;;;;;;11.29;100.00;102110.59;5043467;28;20071;-71
2022/06/28 03:37:21;;;;;;;16.58;12.35;;;;;;;11.29;100.00;102112.50;5046504;28;20484;-72
2022/06/28 03:39:46;;;;;;;16.60;12.30;;;;;;;11.28;100.00;102117.16;5042794;28;20063;-72
2022/06/28 03:42:11;;;;;;;18.13;12.30;;;;;;;11.28;100.00;102114.41;5041632;28;20071;-72
2022/06/28 03:44:37;;;;;;;18.65;12.15;;;;;;;11.28;100.00;102116.31;5042567;28;20568;-72
2022/06/28 03:47:02;;;;;;;17.23;12.13;;;;;;;11.29;100.00;102115.25;5045204;28;20396;-73
2022/06/28 03:49:28;;;;;;;16.80;12.48;;;;;;;11.30;100.00;102115.03;5043961;28;20044;-72
2022/06/28 03:51:53;;;;;;;14.57;11.25;;;;;;;11.30;100.00;102128.81;5041004;28;20037;-72
2022/06/28 03:54:18;;;;;;;16.30;12.20;;;;;;;11.29;100.00;102120.75;5044120;28;20515;-72
2022/06/28 03:56:44;;;;;;;16.85;11.38;;;;;;;11.30;100.00;102122.44;5045882;28;20091;-72
2022/06/28 03:59:09;;;;;;;13.63;10.85;;;;;;;11.30;100.00;102116.94;5043868;28;20302;-72
2022/06/28 04:01:34;;;;;;;14.13;10.80;;;;;;;11.33;100.00;102111.06;5045257;28;20053;-72
2022/06/28 04:03:59;;;;;;;15.60;10.13;;;;;;;11.28;100.00;102108.06;5044003;28;20087;-72
2022/06/28 04:06:25;;;;;;;15.70;11.18;;;;;;;11.27;100.00;102118.22;5044644;28;20017;-72
2022/06/28 04:08:50;;;;;;;15.27;11.07;;;;;;;11.27;100.00;102118.22;5046135;28;20441;-72
2022/06/28 04:11:16;;;;;;;13.73;9.43;;;;;;;11.33;100.00;102130.31;5042768;28;20481;-72
2022/06/28 04:13:46;;;;;;;15.95;9.77;;;;;;;11.35;100.00;102126.31;5046099;28;20045;-71
2022/06/28 04:16:11;;;;;;;14.10;9.95;;;;;;;11.37;100.00;102124.19;5045272;28;20623;-72
2022/06/28 04:18:37;;;;;;;12.57;10.32;;;;;;;11.39;100.00;102119.31;5044861;28;20047;-70
2022/06/28 04:21:02;;;;;;;11.60;9.52;;;;;;;11.41;100.00;102130.16;5038347;28;20034;-71
2022/06/28 04:23:28;;;;;;;16.58;10.13;;;;;;;11.46;100.00;102133.13;5026078;28;20116;-71
2022/06/28 04:25:53;;;;;;;14.77;9.32;;;;;;;11.50;100.00;102131.63;5035998;28;20064;-72
2022/06/28 04:28:19;;;;;;;15.52;9.02;;;;;;;11.55;100.00;102133.78;5045605;28;20120;-71
2022/06/28 04:30:44;;;;;;;12.73;9.07;;;;;;;11.63;100.00;102133.63;5044058;28;20025;-71
2022/06/28 04:33:09;;;;;;;14.43;9.25;;;;;;;11.66;100.00;102127.72;5044096;28;20052;-71
2022/06/28 04:35:35;;;;;;;12.85;8.65;;;;;;;11.68;100.00;102122.84;5041562;28;20049;-71
2022/06/28 04:38:01;;;;;;;13.38;8.65;;;;;;;11.68;100.00;102133.84;5045327;28;20037;-71
2022/06/28 04:40:26;;;;;;;15.63;8.60;;;;;;;11.65;100.00;102131.50;5044268;28;20301;-72
2022/06/28 04:42:52;;;;;;;13.68;7.88;;;;;;;11.65;99.76;102132.34;5045263;28;20029;-71
2022/06/28 04:45:17;;;;;;;13.82;8.35;;;;;;;11.66;99.54;102130.47;5041955;28;20029;-71
2022/06/28 04:47:43;;;;;;;14.55;7.93;;;;;;;11.67;99.38;102134.91;5044702;28;20025;-70
2022/06/28 04:50:09;;;;;;;12.73;8.05;;;;;;;11.68;99.51;102131.94;5045100;28;20057;-72
2022/06/28 04:52:34;;;;;;;13.35;7.72;;;;;;;11.69;99.57;102130.03;5045017;28;20061;-71
2022/06/28 04:55:00;;;;;;;13.98;8.20;;;;;;;11.72;99.89;102132.38;5041076;28;20025;-71
2022/06/28 04:57:26;;;;;;;12.23;8.00;;;;;;;11.73;99.45;102138.72;5043895;28;20036;-70
2022/06/28 04:59:51;;;;;;;12.93;7.85;;;;;;;11.75;99.85;102134.69;5030921;28;20018;-69
2022/06/28 05:02:16;;;;;;;12.98;8.10;;;;;;;11.79;99.90;102132.38;5044387;28;20049;-72
2022/06/28 05:04:42;;;;;;;14.05;8.32;;;;;;;11.84;99.44;102130.75;5045566;28;20545;-71
2022/06/28 05:07:07;;;;;;;15.25;8.38;;;;;;;11.88;99.55;102136.69;5047223;28;20029;-70
2022/06/28 05:09:32;;;;;;;13.15;7.88;;;;;;;11.90;99.58;102132.66;5049215;28;20029;-72
2022/06/28 05:11:57;;;;;;;15.32;7.68;;;;;;;11.98;99.08;102137.13;5048703;28;20025;-72
2022/06/28 05:14:23;;;;;;;15.45;8.00;;;;;;;12.00;98.99;102134.16;5036683;28;20025;-72
2022/06/28 05:16:48;;;;;;;13.13;7.63;;;;;;;12.04;99.35;102136.28;5039770;28;20029;-72
2022/06/28 05:19:13;;;;;;;14.95;7.85;;;;;;;12.12;98.76;102135.25;5051216;28;21200;-72
2022/06/28 05:21:38;;;;;;;12.88;7.50;;;;;;;12.14;99.00;102133.13;5052432;28;20021;-72
2022/06/28 05:24:05;;;;;;;15.80;7.88;;;;;;;12.18;99.23;102131.66;5049340;28;20111;-72
2022/06/28 05:26:30;;;;;;;13.32;7.85;;;;;;;12.26;98.37;102122.34;5053210;28;20025;-72
2022/06/28 05:28:56;;;;;;;16.80;7.65;;;;;;;12.31;98.16;102125.31;5051597;28;20023;-72
2022/06/28 05:31:21;;;;;;;16.08;7.43;;;;;;;12.40;96.76;102122.13;5051321;28;20611;-72
2022/06/28 05:33:46;;;;;;;15.57;6.97;;;;;;;12.50;95.81;102123.63;5053359;28;20029;-74
2022/06/28 05:36:12;;;;;;;13.13;6.68;;;;;;;12.52;96.74;102119.59;5051571;28;20028;-72
2022/06/28 05:38:37;;;;;;;13.82;6.63;;;;;;;12.60;96.78;102132.31;5051289;28;20043;-72
2022/06/28 05:41:02;;;;;;;14.35;7.18;;;;;;;12.70;96.59;102129.97;5045939;28;20017;-73
2022/06/28 05:43:28;;;;;;;15.93;6.55;;;;;;;12.80;94.30;102130.38;5048935;28;20391;-72
2022/06/28 05:45:53;;;;;;;12.18;6.45;;;;;;;12.94;93.26;102131.22;5049316;28;20029;-71
2022/06/28 05:48:18;;;;;;;12.55;5.93;;;;;;;13.06;92.52;102129.47;5047986;28;20118;-72
2022/06/28 05:50:44;;;;;;;11.85;5.63;;;;;;;13.17;93.01;102119.69;5047506;28;20021;-71
2022/06/28 05:53:09;;;;;;;13.98;5.57;;;;;;;13.28;90.84;102116.31;5051229;28;20009;-72
2022/06/28 05:55:34;;;;;;;14.75;5.95;;;;;;;13.34;90.53;102122.88;5047285;28;20029;-72
2022/06/28 05:58:00;;;;;;;12.55;6.47;;;;;;;13.41;90.48;102107.97;5051779;28;20044;-71
2022/06/28 06:00:25;;;;;;;15.80;5.85;;;;;;;13.46;89.74;102105.38;5047726;28;20473;-72
2022/06/28 06:02:50;;;;;;;15.65;5.35;;;;;;;13.48;89.33;102111.56;5052639;28;20059;-73
2022/06/28 06:05:16;;;;;;;15.02;6.38;;;;;;;13.57;88.70;102103.00;5052344;28;20086;-74
2022/06/28 06:07:42;;;;;;;14.60;5.90;;;;;;;13.59;89.38;102117.44;5054820;28;20061;-72
2022/06/28 06:10:08;;;;;;;13.38;5.50;;;;;;;13.65;90.48;102122.09;5053923;28;20110;-72
2022/06/28 06:12:34;;;;;;;16.40;5.00;;;;;;;13.74;87.45;102118.00;5051687;28;20020;-71
2022/06/28 06:14:59;;;;;;;12.20;4.63;;;;;;;13.84;87.06;102129.41;5040374;28;20059;-72
2022/06/28 06:17:25;;;;;;;13.85;5.43;;;;;;;13.89;86.17;102124.09;5046110;28;20500;-73
2022/06/28 06:19:50;;;;;;;16.15;5.32;;;;;;;13.88;85.53;102122.38;5046719;28;20033;-73
2022/06/28 06:22:16;;;;;;;15.75;5.50;;;;;;;13.93;86.64;102119.78;5047840;28;20024;-72
2022/06/28 06:24:41;;;;;;;16.63;5.95;;;;;;;13.96;85.95;102124.88;5047066;28;20021;-74
2022/06/28 06:27:06;;;;;;;16.63;5.38;;;;;;;14.02;86.27;102134.19;5043478;28;20025;-71
2022/06/28 06:29:32;;;;;;;18.42;6.25;;;;;;;14.02;86.44;102132.28;5046125;28;20056;-72
2022/06/28 06:31:57;;;;;;;19.30;6.57;;;;;;;14.08;86.11;102132.44;5047346;28;20151;-71
2022/06/28 06:34:23;;;;;;;12.93;5.40;;;;;;;14.13;85.38;102138.16;5047819;28;20101;-72
2022/06/28 06:36:48;;;;;;;15.38;5.85;;;;;;;14.17;83.62;102131.13;5044073;28;20025;-72
2022/06/28 06:39:14;;;;;;;15.52;5.93;;;;;;;14.22;84.23;102131.28;5044928;28;20028;-72
2022/06/28 06:41:39;;;;;;;16.77;5.35;;;;;;;14.27;84.42;102134.22;5044551;28;20067;-72
2022/06/28 06:44:05;;;;;;;17.02;5.32;;;;;;;14.38;83.39;102130.75;5045947;28;20499;-71
2022/06/28 06:46:30;;;;;;;16.50;5.18;;;;;;;14.42;84.25;102134.75;5045933;28;20188;-72
2022/06/28 06:48:55;;;;;;;15.60;5.38;;;;;;;14.48;84.23;102142.16;5045142;28;20067;-72
2022/06/28 06:51:21;;;;;;;14.68;5.43;;;;;;;14.57;84.99;102139.97;5046732;28;20025;-72
2022/06/28 06:53:46;;;;;;;15.98;5.85;;;;;;;14.62;82.79;102139.31;5047473;28;20075;-69
2022/06/28 06:56:12;;;;;;;13.73;5.05;;;;;;;14.73;83.46;102144.09;5048023;28;20070;-71
2022/06/28 06:58:37;;;;;;;16.77;5.00;;;;;;;14.77;82.43;102148.94;5044293;28;20108;-72
2022/06/28 07:01:03;;;;;;;10.05;3.47;;;;;;;14.82;77.77;102142.72;5037692;28;20108;-72
2022/06/28 07:03:28;;;;;;;12.75;3.92;;;;;;;14.90;80.14;102139.69;5045129;28;20065;-72
2022/06/28 07:05:53;;;;;;;14.35;4.95;;;;;;;14.95;80.69;102141.75;5046210;28;20056;-72
2022/06/28 07:08:19;;;;;;;9.73;3.60;;;;;;;15.01;75.31;102138.94;5044921;28;20025;-72
2022/06/28 07:10:44;;;;;;;12.00;3.33;;;;;;;15.12;75.66;102147.53;5045624;28;20488;-71
2022/06/28 07:13:10;;;;;;;11.25;3.13;;;;;;;15.16;75.31;102146.84;5046078;28;20035;-71
2022/06/28 07:15:35;;;;;;;8.57;3.60;;;;;;;15.25;77.25;102151.00;5042952;28;20032;-72
2022/06/28 07:18:02;;;;;;;12.90;3.17;;;;;;;15.31;73.90;102155.63;5045951;28;20033;-72
2022/06/28 07:20:27;;;;;;;14.25;3.63;;;;;;;15.42;74.39;102144.88;5031846;28;20041;-72
2022/06/28 07:22:52;;;;;;;11.65;3.50;;;;;;;15.52;75.04;102151.53;5025684;28;20022;-71
2022/06/28 07:25:18;;;;;;;11.10;2.85;;;;;;;15.55;70.26;102139.97;5041990;28;20040;-72
2022/06/28 07:27:43;;;;;;;10.98;3.05;;;;;;;15.62;72.27;102144.63;5046484;28;20020;-71
2022/06/28 07:30:09;;;;;;;11.20;3.22;;;;;;;15.68;69.42;102144.56;5044458;28;20029;-73
2022/06/28 07:32:34;;;;;;;11.52;3.13;;;;;;;15.75;73.04;102148.06;5045769;28;20075;-73
2022/06/28 07:34:59;;;;;;;12.02;2.70;;;;;;;15.81;71.44;102155.47;5044639;28;20056;-71
2022/06/28 07:37:25;;;;;;;12.43;3.15;;;;;;;15.87;70.65;102148.16;5029221;28;20444;-72
2022/06/28 07:39:50;;;;;;;14.30;3.50;;;;;;;15.94;69.19;102151.66;5025064;28;20022;-72
2022/06/28 07:42:15;;;;;;;9.30;2.90;;;;;;;16.06;69.01;102152.53;5025089;28;20369;-73
2022/06/28 07:44:41;;;;;;;13.00;3.47;;;;;;;16.08;67.45;102153.16;5040112;28;20035;-72
2022/06/28 07:47:06;;;;;;;9.27;2.75;;;;;;;16.09;66.83;102152.06;5044865;28;20465;-73
2022/06/28 07:52:33;;;;;;;11.95;3.45;;;;;;;16.22;67.51;102147.41;5044745;28;20090;-72
2022/06/28 07:54:59;;;;;;;9.50;2.85;;;;;;;16.27;69.84;102153.97;5030842;28;20029;-72
2022/06/28 07:57:25;;;;;;;11.48;3.13;;;;;;;16.32;69.46;102145.78;5038450;28;20079;-72
2022/06/28 07:59:50;;;;;;;11.32;2.67;;;;;;;16.40;67.30;102140.94;5045324;28;20040;-72
2022/06/28 08:02:16;;;;;;;13.85;2.78;;;;;;;16.53;67.46;102137.97;5044829;28;20112;-72
2022/06/28 08:04:41;;;;;;;11.55;3.38;;;;;;;16.61;68.24;102135.66;5046162;28;20162;-73
2022/06/28 08:07:06;;;;;;;15.63;3.80;;;;;;;16.69;70.68;102144.75;5043532;28;20025;-72
2022/06/28 08:09:32;;;;;;;9.70;3.05;;;;;;;16.79;68.46;102136.69;5044686;28;20326;-72
2022/06/28 08:11:57;;;;;;;15.18;3.10;;;;;;;16.83;65.91;102135.97;5036708;28;21201;-72
2022/06/28 08:14:22;;;;;;;8.27;2.80;;;;;;;16.92;65.78;102128.09;5045732;28;20024;-72
2022/06/28 08:16:48;;;;;;;7.57;2.50;;;;;;;16.97;61.99;102135.72;5045167;28;20759;-72
2022/06/28 08:19:15;;;;;;;11.45;2.75;;;;;;;16.98;61.33;102138.28;5044992;28;20029;-72
2022/06/28 08:21:40;;;;;;;10.88;2.58;;;;;;;17.00;62.08;102136.09;5045856;28;20376;-72
2022/06/28 08:24:06;;;;;;;10.73;2.50;;;;;;;17.07;62.79;102139.56;5041979;28;20029;-72
2022/06/28 08:26:32;;;;;;;7.47;2.30;;;;;;;17.15;61.10;102129.19;5045067;28;20069;-72
2022/06/28 08:28:57;;;;;;;10.48;2.85;;;;;;;17.24;61.14;102133.28;5039791;28;20114;-71
2022/06/28 08:31:22;;;;;;;7.95;2.28;;;;;;;17.30;60.69;102123.97;5042334;28;20118;-72
2022/06/28 08:33:48;;;;;;;11.32;2.50;;;;;;;17.36;60.85;102123.00;5044740;28;20469;-72
2022/06/28 08:36:13;;;;;;;11.50;2.40;;;;;;;17.45;62.64;102124.31;5044121;28;20061;-70
2022/06/28 08:38:38;;;;;;;8.40;1.90;;;;;;;17.43;57.86;102118.13;5043637;28;20441;-72
2022/06/28 08:41:06;;;;;;;10.30;1.92;;;;;;;17.51;60.08;102120.53;5048529;28;20424;-72
2022/06/28 08:43:31;;;;;;;10.63;2.63;;;;;;;17.58;59.56;102112.91;5047574;28;20035;-72
2022/06/28 08:45:57;;;;;;;8.73;2.15;;;;;;;17.67;59.17;102107.78;5048178;28;20108;-72
2022/06/28 08:48:33;;;;;;;7.00;1.83;;;;;;;17.79;59.71;102105.00;5048915;28;20453;-72
2022/06/28 08:51:00;;;;;;;11.02;2.40;;;;;;;17.84;59.22;102108.75;5047724;28;20036;-72
2022/06/28 08:53:27;;;;;;;8.75;2.22;;;;;;;17.90;61.28;102106.91;5042540;28;20127;-71
2022/06/28 08:55:52;;;;;;;9.13;2.08;;;;;;;18.02;58.59;102102.09;5046590;28;20029;-71
2022/06/28 08:58:18;;;;;;;9.40;2.10;;;;;;;18.25;57.05;102092.81;5048701;28;20078;-72
2022/06/28 09:00:45;;;;;;;7.13;1.80;;;;;;;18.35;56.74;102098.53;5047848;28;20103;-71
2022/06/28 09:03:10;;;;;;;11.98;2.17;;;;;;;18.36;56.38;102103.00;5047025;28;20040;-72
2022/06/28 09:05:35;;;;;;;7.30;1.63;;;;;;;18.48;55.66;102099.28;5047490;28;20033;-72
2022/06/28 09:08:01;;;;;;;8.10;1.60;;;;;;;18.58;55.20;102105.84;5044544;28;20245;-71
2022/06/28 09:10:26;;;;;;;9.05;2.08;;;;;;;18.62;55.58;102097.84;5047295;28;20052;-71
2022/06/28 09:13:24;;;;;;;8.20;1.83;;;;;;;18.71;56.98;102101.09;5047678;28;20032;-71
2022/06/28 09:15:58;;;;;;;6.38;1.60;;;;;;;18.79;55.14;102100.63;5012194;28;20124;-71
2022/06/28 09:18:36;;;;;;;5.97;1.75;;;;;;;18.90;55.26;102092.16;5045363;28;20025;-71
2022/06/28 09:21:05;;;;;;;9.40;1.88;;;;;;;19.11;56.19;102095.25;5047132;28;20440;-71
2022/06/28 09:23:33;;;;;;;10.13;2.05;;;;;;;19.12;52.75;102094.16;5047286;28;20021;-72
2022/06/28 09:26:10;;;;;;;7.15;1.48;;;;;;;19.18;54.25;102091.19;5047310;28;20108;-71
2022/06/28 09:28:41;;;;;;;6.60;1.38;;;;;;;19.39;55.65;102091.44;5047177;28;20025;-71
2022/06/28 09:31:27;;;;;;;6.45;1.60;;;;;;;19.62;55.69;102085.63;5046451;28;20041;-72
2022/06/28 09:34:06;;;;;;;7.72;1.60;;;;;;;20.01;52.55;102082.69;5046613;28;20029;-72
2022/06/28 09:36:37;;;;;;;7.57;1.67;;;;;;;20.69;49.21;102081.06;5045880;28;20032;-72
2022/06/28 09:39:28;;;;;;;5.72;1.38;;;;;;;22.74;48.37;102077.72;5046179;28;20060;-72
2022/06/28 09:41:56;;;;;;;6.72;1.50;;;;;;;24.10;41.46;102075.78;5024959;28;20073;-72
2022/06/28 09:44:28;;;;;;;6.20;1.42;;;;;;;26.07;39.00;102083.13;5027760;28;20167;-72
2022/06/28 09:46:57;;;;;;;6.15;1.45;;;;;;;27.71;37.62;102078.06;5042958;28;20104;-72
2022/06/28 09:49:30;;;;;;;6.38;1.52;;;;;;;28.31;33.95;102066.44;5048037;28;20110;-71
2022/06/28 09:51:58;;;;;;;5.80;1.25;;;;;;;28.59;31.59;102067.19;5046230;28;20025;-71
2022/06/28 09:54:27;;;;;;;7.93;1.77;;;;;;;29.51;32.00;102066.56;5046738;28;20428;-71
2022/06/28 09:56:54;;;;;;;8.98;1.35;;;;;;;29.37;29.73;102064.69;5042575;28;20033;-70
2022/06/28 09:59:21;;;;;;;5.88;1.33;;;;;;;30.14;28.89;102065.16;5044191;28;20125;-71
2022/06/28 10:01:48;;;;;;;5.93;1.30;;;;;;;31.31;30.16;102052.47;5046937;28;20542;-71
2022/06/28 10:04:14;;;;;;;6.35;1.23;;;;;;;32.00;26.24;102048.31;5046857;28;20104;-73
2022/06/28 10:06:40;;;;;;;7.05;1.10;;;;;;;32.10;26.58;102041.38;5034282;28;20112;-73
2022/06/28 10:09:06;;;;;;;4.05;1.20;;;;;;;32.61;27.91;102042.88;5038293;28;20025;-73
2022/06/28 10:15:01;;;;;;;4.38;1.50;;;;;;;33.03;25.39;102046.38;5036037;28;20162;-71
2022/06/28 10:17:23;;;;;;;6.60;1.50;;;;;;;32.76;26.99;102044.19;5040600;28;20110;-72
2022/06/28 10:19:49;;;;;;;5.25;1.10;;;;;;;33.18;25.29;102038.31;5038700;28;20493;-71
2022/06/28 10:22:15;;;;;;;5.88;1.30;;;;;;;33.80;23.99;102043.56;5031087;28;20112;-71
2022/06/28 10:24:51;;;;;;;7.47;1.40;;;;;;;33.10;26.73;102037.25;5037239;28;20518;-72
2022/06/28 10:27:17;;;;;;;3.65;1.05;;;;;;;32.31;25.55;102042.16;5046799;28;20029;-71
2022/06/28 10:30:00;;;;;;;8.95;1.45;;;;;;;32.61;31.56;102030.66;5041465;28;20021;-72
2022/06/28 10:32:42;;;;;;;5.85;1.80;;;;;;;32.71;27.76;102025.34;5044157;28;20037;-71
2022/06/28 10:35:07;;;;;;;6.60;1.20;;;;;;;32.15;26.11;102024.09;5043198;28;20153;-71
2022/06/28 10:37:33;;;;;;;7.13;2.00;;;;;;;31.33;26.17;102012.41;5044100;28;20492;-71
2022/06/28 10:40:23;;;;;;;8.27;1.70;;;;;;;30.74;29.48;102016.84;5045477;28;20029;-71
2022/06/28 10:42:53;;;;;;;9.05;1.90;;;;;;;29.67;30.21;102011.97;5044899;28;20033;-70
2022/06/28 10:45:21;;;;;;;8.27;1.70;;;;;;;28.65;32.22;102005.69;5045209;28;20124;-71
2022/06/28 10:48:14;;;;;;;7.43;2.13;;;;;;;27.54;33.26;102010.16;5044448;28;20029;-69
2022/06/28 10:50:59;;;;;;;7.38;1.60;;;;;;;26.43;36.63;102005.66;5044333;28;20037;-70
2022/06/28 10:53:26;;;;;;;7.68;1.65;;;;;;;25.46;37.67;102004.38;5043797;28;20028;-70
2022/06/28 10:56:12;;;;;;;8.30;1.95;;;;;;;25.25;40.97;101998.22;5044429;28;20032;-69
2022/06/28 10:59:04;;;;;;;8.68;1.90;;;;;;;25.00;40.42;102000.19;5038627;28;20029;-70
2022/06/28 11:01:44;;;;;;;7.47;1.55;;;;;;;25.10;41.81;101993.63;5042635;28;20437;-70
2022/06/28 11:04:18;;;;;;;4.93;1.65;;;;;;;24.92;40.08;101991.56;5046276;28;20146;-70
2022/06/28 11:06:51;;;;;;;9.20;2.40;;;;;;;24.36;39.92;101987.41;5041686;28;20385;-71
2022/06/28 11:09:38;;;;;;;7.13;1.80;;;;;;;24.31;42.65;101979.00;5038817;28;20021;-70
2022/06/28 11:12:14;;;;;;;7.97;1.80;;;;;;;24.47;41.67;101982.53;5044451;28;20032;-70
2022/06/28 11:14:58;;;;;;;6.40;1.85;;;;;;;24.39;42.70;101974.75;5044746;28;20025;-70
2022/06/28 11:17:29;;;;;;;8.75;2.20;;;;;;;24.17;43.44;101962.00;5043694;28;20087;-70
2022/06/28 11:20:00;;;;;;;7.57;2.25;;;;;;;24.29;43.38;101964.44;5043969;28;20035;-70
2022/06/28 11:22:31;;;;;;;9.18;2.15;;;;;;;24.68;41.10;101961.50;5044168;28;20013;-70
2022/06/28 11:24:58;;;;;;;9.10;1.95;;;;;;;24.85;41.73;101956.25;5038899;28;20394;-70
2022/06/28 11:27:24;;;;;;;8.40;2.10;;;;;;;24.94;43.41;101966.78;5045689;28;20029;-70